Time;durP1;ratioP1;P1;durP2;ratioP2;P2;SDS_P1;SDS_P2;PMS_P1;PMS_P2;Temp;Humidity;BMP_temperature;BMP_pressure;BME280_temperature;BME280_humidity;BME280_pressure;Samples;Min_cycle;Max_cycle;Signal;HPM_P1;HPM_P2
2022/11/05 00:10:38;;;;;;;25.15;9.52;;;5.30;99.90;;;;;;5119200;27;20050;-69
2022/11/05 00:19:05;;;;;;;19.13;6.30;;;5.50;99.90;;;;;;5095543;27;20078;-70
2022/11/05 00:26:59;;;;;;;17.10;5.05;;;5.90;99.90;;;;;;5121239;27;20089;-70
2022/11/05 00:29:25;;;;;;;13.45;2.22;;;6.00;99.90;;;;;;5136618;27;20088;-70
2022/11/05 00:31:51;;;;;;;10.27;2.30;;;6.10;99.90;;;;;;5101118;27;20047;-71
2022/11/05 00:34:16;;;;;;;9.98;2.75;;;6.30;99.90;;;;;;5118691;27;20129;-71
2022/11/05 00:36:42;;;;;;;12.30;3.30;;;6.50;99.90;;;;;;5101464;27;20070;-73
2022/11/05 00:39:08;;;;;;;15.25;3.55;;;6.60;99.90;;;;;;5084426;27;20049;-69
2022/11/05 00:41:33;;;;;;;12.07;3.28;;;6.80;99.90;;;;;;5118667;27;20039;-69
2022/11/05 00:46:43;;;;;;;13.90;3.67;;;6.80;99.90;;;;;;5118298;27;20054;-69
2022/11/05 00:52:54;;;;;;;13.20;3.45;;;6.70;99.90;;;;;;5136619;27;20054;-69
2022/11/05 00:54:39;;;;;;;14.43;3.97;;;6.60;99.90;;;;;;5136082;27;20047;-70
2022/11/05 00:57:05;;;;;;;13.10;4.68;;;6.50;99.90;;;;;;5135949;27;20062;-69
2022/11/05 00:59:30;;;;;;;15.43;5.47;;;6.40;99.90;;;;;;5135954;27;20046;-69
2022/11/05 01:01:56;;;;;;;15.10;5.57;;;6.30;99.90;;;;;;5118092;27;20068;-69
2022/11/05 01:04:22;;;;;;;14.38;5.30;;;6.20;99.90;;;;;;5135886;27;20051;-68
2022/11/05 01:06:48;;;;;;;17.58;5.15;;;6.10;99.90;;;;;;5135862;27;20424;-69
2022/11/05 01:09:13;;;;;;;16.48;5.82;;;6.10;99.90;;;;;;5135925;27;20050;-70
2022/11/05 01:11:40;;;;;;;29.13;8.60;;;6.00;99.90;;;;;;5100918;27;20043;-69
2022/11/05 01:14:12;;;;;;;29.02;9.75;;;6.10;99.90;;;;;;5135991;27;20448;-70
2022/11/05 01:16:39;;;;;;;27.48;9.02;;;5.90;99.90;;;;;;5100247;27;20051;-69
2022/11/05 01:19:07;;;;;;;21.63;7.90;;;5.90;99.90;;;;;;5135535;27;20047;-72
2022/11/05 01:21:33;;;;;;;26.13;7.85;;;5.80;99.90;;;;;;5117527;27;20050;-69
2022/11/05 01:23:59;;;;;;;24.77;7.05;;;5.80;99.90;;;;;;5134353;27;20044;-70
2022/11/05 01:26:25;;;;;;;20.10;7.13;;;5.80;99.90;;;;;;5135907;27;20078;-69
2022/11/05 01:28:56;;;;;;;22.60;7.68;;;5.70;99.90;;;;;;5135568;27;20128;-69
2022/11/05 01:31:23;;;;;;;27.33;8.65;;;5.70;99.90;;;;;;5117655;27;20050;-71
2022/11/05 01:33:49;;;;;;;18.75;6.95;;;5.60;99.90;;;;;;5100298;27;20364;-72
2022/11/05 01:36:15;;;;;;;18.25;6.53;;;5.60;99.90;;;;;;5135100;27;20039;-69
2022/11/05 01:38:41;;;;;;;15.77;5.47;;;5.60;99.90;;;;;;5100045;27;20047;-70
2022/11/05 01:41:07;;;;;;;12.88;5.63;;;5.60;99.90;;;;;;5116783;27;20506;-69
2022/11/05 01:43:54;;;;;;;16.08;5.63;;;5.50;99.90;;;;;;5116837;27;20043;-68
2022/11/05 01:46:32;;;;;;;15.32;5.07;;;5.50;99.90;;;;;;5135262;27;20043;-70
2022/11/05 01:49:16;;;;;;;14.93;5.07;;;5.50;99.90;;;;;;5135290;27;20126;-68
2022/11/05 01:51:43;;;;;;;14.70;5.38;;;5.40;99.90;;;;;;5116732;27;20355;-69
2022/11/05 01:54:13;;;;;;;15.02;4.97;;;5.40;99.90;;;;;;5135057;27;20157;-68
2022/11/05 01:57:02;;;;;;;16.38;5.43;;;5.40;99.90;;;;;;5134731;27;20062;-69
2022/11/05 01:59:42;;;;;;;18.63;6.28;;;5.40;99.90;;;;;;5100357;27;20404;-69
2022/11/05 02:02:07;;;;;;;13.70;4.53;;;5.40;99.90;;;;;;5116458;27;20474;-69
2022/11/05 02:04:35;;;;;;;15.40;5.00;;;5.30;99.90;;;;;;5133961;27;20130;-69
2022/11/05 02:07:03;;;;;;;12.35;5.05;;;5.20;99.90;;;;;;5116438;27;20059;-69
2022/11/05 02:09:37;;;;;;;16.40;5.45;;;5.20;99.90;;;;;;5116048;27;20513;-69
2022/11/05 02:12:03;;;;;;;11.95;5.13;;;5.10;99.90;;;;;;5135273;27;20065;-69
2022/11/05 02:14:29;;;;;;;20.35;6.07;;;5.10;99.90;;;;;;5099319;27;20398;-69
2022/11/05 02:17:05;;;;;;;18.25;6.43;;;5.10;99.90;;;;;;5099924;27;20047;-68
2022/11/05 02:19:59;;;;;;;15.70;5.60;;;5.10;99.90;;;;;;5134721;27;20047;-68
2022/11/05 02:22:25;;;;;;;17.25;5.50;;;5.10;99.90;;;;;;5134497;27;20043;-69
2022/11/05 02:25:15;;;;;;;16.08;6.30;;;5.10;99.90;;;;;;5115971;27;20058;-69
2022/11/05 02:27:47;;;;;;;17.13;4.78;;;5.00;99.90;;;;;;5115954;27;20047;-71
2022/11/05 02:30:50;;;;;;;16.10;5.55;;;4.90;99.90;;;;;;5116818;27;20053;-70
2022/11/05 02:33:59;;;;;;;16.67;5.20;;;4.90;99.90;;;;;;5134281;27;20360;-68
2022/11/05 02:36:27;;;;;;;12.15;4.85;;;4.80;99.90;;;;;;5014853;28;20049;-69
2022/11/05 02:39:02;;;;;;;15.30;4.60;;;4.80;99.90;;;;;;5120720;27;20440;-68
2022/11/05 02:41:58;;;;;;;9.75;4.43;;;4.70;99.90;;;;;;5115850;27;20047;-69
2022/11/05 02:45:00;;;;;;;;;;;4.70;99.90;;;;;;5134514;27;20039;-69
2022/11/05 02:47:40;;;;;;;13.15;4.88;;;4.70;99.90;;;;;;5014520;28;19966;-69
2022/11/05 02:50:24;;;;;;;11.73;4.15;;;4.80;99.90;;;;;;5122641;27;20051;-71
2022/11/05 02:53:16;;;;;;;13.82;4.15;;;4.70;99.90;;;;;;5134494;27;20435;-69
2022/11/05 02:55:58;;;;;;;12.52;5.00;;;4.70;99.90;;;;;;5071104;27;20387;-69
2022/11/05 02:58:27;;;;;;;12.57;4.50;;;4.60;99.90;;;;;;5115185;27;20074;-69
2022/11/05 03:00:55;;;;;;;12.88;4.75;;;4.50;99.90;;;;;;5115922;27;20398;-69
2022/11/05 03:03:33;;;;;;;12.25;4.88;;;4.50;99.90;;;;;;5115160;27;20047;-70
2022/11/05 03:06:22;;;;;;;10.02;4.22;;;4.50;99.90;;;;;;5133080;27;20051;-69
2022/11/05 03:09:06;;;;;;;10.88;4.57;;;4.50;99.90;;;;;;5134023;27;20092;-70
2022/11/05 03:11:45;;;;;;;10.20;4.30;;;4.50;99.90;;;;;;5133893;27;20490;-68
2022/11/05 03:14:36;;;;;;;16.02;5.07;;;4.50;99.90;;;;;;5115318;27;20115;-68
2022/11/05 03:17:26;;;;;;;8.43;4.15;;;4.50;99.90;;;;;;5115393;27;20364;-69
2022/11/05 03:20:11;;;;;;;11.23;4.32;;;4.50;99.90;;;;;;5133430;27;20043;-68
2022/11/05 03:22:46;;;;;;;15.52;4.13;;;4.50;99.90;;;;;;5133562;27;20073;-69
2022/11/05 03:25:17;;;;;;;16.30;3.90;;;4.50;99.90;;;;;;5133805;28;20051;-69
2022/11/05 03:27:47;;;;;;;10.40;3.92;;;4.50;99.90;;;;;;5099122;28;20055;-69
2022/11/05 03:30:14;;;;;;;10.00;4.15;;;4.50;99.90;;;;;;5115227;28;20476;-69
2022/11/05 03:32:52;;;;;;;11.90;3.78;;;4.50;99.90;;;;;;5133889;28;20335;-68
2022/11/05 03:35:25;;;;;;;10.40;3.92;;;4.60;99.90;;;;;;5133468;28;20087;-69
2022/11/05 03:37:55;;;;;;;12.00;3.60;;;4.50;99.90;;;;;;5115726;28;20119;-69
2022/11/05 03:40:23;;;;;;;13.38;4.07;;;4.40;99.90;;;;;;5133140;28;20035;-70
2022/11/05 03:42:53;;;;;;;9.90;3.50;;;4.40;99.90;;;;;;5133625;28;20415;-70
2022/11/05 03:45:28;;;;;;;13.88;4.13;;;4.40;99.90;;;;;;5133300;28;20397;-70
2022/11/05 03:47:57;;;;;;;10.85;3.45;;;4.40;99.90;;;;;;5098285;28;20078;-69
2022/11/05 03:50:54;;;;;;;15.30;3.72;;;4.50;99.90;;;;;;5133068;28;20363;-68
2022/11/05 03:53:35;;;;;;;14.20;4.10;;;4.40;99.90;;;;;;5133756;28;20058;-68
2022/11/05 03:56:26;;;;;;;14.50;3.85;;;4.40;99.90;;;;;;5114992;28;20047;-68
2022/11/05 03:58:54;;;;;;;10.32;3.83;;;4.40;99.90;;;;;;5115829;28;20185;-68
2022/11/05 04:01:19;;;;;;;13.25;3.85;;;4.40;99.90;;;;;;5133471;28;20110;-68
2022/11/05 04:03:45;;;;;;;11.68;3.97;;;4.30;99.90;;;;;;5133271;28;20126;-69
2022/11/05 04:14:25;;;;;;;14.82;4.07;;;4.30;99.90;;;;;;5132838;28;20482;-68
2022/11/05 04:17:08;;;;;;;12.50;3.65;;;4.20;99.90;;;;;;5136043;27;20082;-68
2022/11/05 04:25:05;;;;;;;8.95;3.30;;;4.20;99.90;;;;;;5118822;27;20043;-71
2022/11/05 04:27:31;;;;;;;14.73;3.67;;;4.20;99.90;;;;;;5136467;27;20486;-70
2022/11/05 04:32:41;;;;;;;11.93;3.90;;;4.20;99.90;;;;;;5137133;27;20047;-69
2022/11/05 04:35:06;;;;;;;12.40;3.90;;;4.20;99.90;;;;;;5101044;27;20368;-68
2022/11/05 04:37:32;;;;;;;14.50;4.20;;;4.20;99.90;;;;;;5101768;27;20039;-69
2022/11/05 04:39:58;;;;;;;10.82;3.80;;;4.30;99.90;;;;;;5137060;27;20039;-69
2022/11/05 04:42:23;;;;;;;10.93;3.60;;;4.30;99.90;;;;;;5085255;27;20050;-70
2022/11/05 04:44:49;;;;;;;13.00;3.47;;;4.30;99.90;;;;;;5117849;27;20066;-69
2022/11/05 04:47:15;;;;;;;14.68;3.95;;;4.30;99.90;;;;;;5136216;27;20040;-69
2022/11/05 04:49:40;;;;;;;12.98;4.68;;;4.30;99.90;;;;;;5100856;27;20138;-70
2022/11/05 04:52:06;;;;;;;12.00;4.00;;;4.30;99.90;;;;;;5135799;27;20515;-69
2022/11/05 04:54:32;;;;;;;12.52;4.40;;;4.20;99.90;;;;;;5136213;27;20054;-69
2022/11/05 04:56:57;;;;;;;11.48;3.95;;;4.20;99.90;;;;;;5117510;27;20616;-69
2022/11/05 04:59:23;;;;;;;11.43;3.80;;;4.20;99.90;;;;;;5136564;27;20491;-69
2022/11/05 05:01:52;;;;;;;14.13;4.20;;;4.20;99.90;;;;;;5135930;27;20468;-70
2022/11/05 05:04:18;;;;;;;12.80;3.90;;;4.20;99.90;;;;;;5117726;27;20066;-68
2022/11/05 05:06:44;;;;;;;12.85;3.90;;;4.20;99.90;;;;;;5135931;27;20475;-68
2022/11/05 05:09:09;;;;;;;9.63;3.78;;;4.10;99.90;;;;;;5135727;27;20043;-69
2022/11/05 05:11:35;;;;;;;16.40;4.20;;;4.10;99.90;;;;;;5117606;27;20074;-69
2022/11/05 05:14:01;;;;;;;10.85;3.75;;;4.10;99.90;;;;;;5135967;27;20071;-70
2022/11/05 05:16:26;;;;;;;12.52;4.40;;;4.10;99.90;;;;;;5134493;27;20046;-70
2022/11/05 05:18:53;;;;;;;14.60;4.28;;;4.00;99.90;;;;;;5135738;27;20043;-70
2022/11/05 05:21:39;;;;;;;11.60;4.33;;;4.00;99.90;;;;;;5118234;27;20352;-70
2022/11/05 05:24:13;;;;;;;14.52;4.55;;;4.00;99.90;;;;;;5118283;27;20433;-70
2022/11/05 05:26:42;;;;;;;14.27;4.03;;;4.00;99.90;;;;;;5135800;27;20407;-69
2022/11/05 05:29:09;;;;;;;15.38;4.22;;;4.00;99.90;;;;;;5116606;27;20490;-70
2022/11/05 05:31:35;;;;;;;16.52;4.45;;;3.90;99.90;;;;;;5117094;27;20041;-70
2022/11/05 05:34:01;;;;;;;14.32;4.82;;;4.00;99.90;;;;;;5117253;27;20129;-73
2022/11/05 05:36:27;;;;;;;10.45;4.90;;;3.90;99.90;;;;;;5117954;27;20043;-70
2022/11/05 05:38:53;;;;;;;12.35;4.50;;;3.90;99.90;;;;;;5135450;27;20126;-70
2022/11/05 05:41:18;;;;;;;13.88;4.15;;;4.00;99.90;;;;;;5117504;27;20078;-70
2022/11/05 05:43:44;;;;;;;15.30;4.28;;;4.00;99.90;;;;;;5135288;27;20500;-69
2022/11/05 05:46:12;;;;;;;21.15;4.90;;;4.00;99.90;;;;;;5117087;27;20039;-69
2022/11/05 05:48:38;;;;;;;12.73;4.60;;;4.00;99.90;;;;;;5116822;27;20127;-69
2022/11/05 05:51:07;;;;;;;15.88;5.07;;;4.00;99.90;;;;;;5135120;27;20122;-70
2022/11/05 05:53:33;;;;;;;13.50;4.97;;;3.90;99.90;;;;;;5135175;27;20138;-69
2022/11/05 05:55:59;;;;;;;15.45;5.82;;;4.00;99.90;;;;;;5135205;27;20043;-69
2022/11/05 05:58:29;;;;;;;13.07;5.57;;;4.10;99.90;;;;;;5133516;27;20054;-69
2022/11/05 06:00:59;;;;;;;16.27;5.88;;;4.20;99.90;;;;;;5134994;27;20043;-69
2022/11/05 06:03:25;;;;;;;18.92;6.03;;;4.30;99.90;;;;;;5116585;27;20066;-70
2022/11/05 06:05:50;;;;;;;15.93;5.57;;;4.40;99.90;;;;;;5135301;27;20475;-69
2022/11/05 06:08:16;;;;;;;19.15;5.90;;;4.50;99.90;;;;;;5134888;27;20111;-68
2022/11/05 06:10:42;;;;;;;17.38;6.28;;;4.60;99.90;;;;;;5134763;27;20050;-70
2022/11/05 06:13:07;;;;;;;17.05;6.25;;;4.70;99.90;;;;;;5116629;27;20128;-69
2022/11/05 06:15:33;;;;;;;17.42;6.13;;;4.80;99.90;;;;;;5134225;27;20066;-70
2022/11/05 06:17:59;;;;;;;16.83;6.72;;;4.80;99.90;;;;;;5135065;27;20043;-69
2022/11/05 06:20:24;;;;;;;17.33;6.57;;;4.90;99.90;;;;;;5135213;27;20076;-69
2022/11/05 06:22:56;;;;;;;19.73;6.53;;;4.90;99.90;;;;;;5135507;27;20090;-69
2022/11/05 06:25:22;;;;;;;16.00;6.18;;;4.90;99.90;;;;;;5135617;27;20042;-67
2022/11/05 06:27:48;;;;;;;14.38;6.50;;;4.90;99.90;;;;;;5136731;27;20126;-68
2022/11/05 06:30:14;;;;;;;19.52;5.75;;;4.80;99.90;;;;;;5118420;27;20127;-69
2022/11/05 06:32:39;;;;;;;17.23;6.43;;;4.70;99.90;;;;;;5118145;27;20122;-69
2022/11/05 06:35:05;;;;;;;14.45;5.88;;;4.70;99.90;;;;;;5118040;27;20566;-67
2022/11/05 06:37:34;;;;;;;14.60;5.68;;;4.70;99.90;;;;;;5136298;27;20065;-70
2022/11/05 06:40:00;;;;;;;15.65;5.80;;;4.60;99.90;;;;;;5135781;27;20079;-69
2022/11/05 06:42:26;;;;;;;14.88;5.55;;;4.50;99.90;;;;;;5118193;27;20050;-70
2022/11/05 06:44:51;;;;;;;16.35;5.75;;;4.50;99.90;;;;;;5135639;27;20499;-68
2022/11/05 06:47:21;;;;;;;14.15;5.80;;;4.40;99.90;;;;;;5135464;27;20119;-69
2022/11/05 06:49:46;;;;;;;14.05;6.15;;;4.50;99.90;;;;;;5135291;27;20057;-69
2022/11/05 06:52:13;;;;;;;18.30;5.68;;;4.50;99.90;;;;;;5135501;27;20122;-70
2022/11/05 06:54:41;;;;;;;15.77;5.40;;;4.50;99.90;;;;;;5134762;27;20514;-70
2022/11/05 06:57:08;;;;;;;;;;;4.40;99.90;;;;;;5116834;28;20100;-70
2022/11/05 06:59:35;;;;;;;14.85;5.25;;;4.40;99.90;;;;;;5135043;27;19925;-69
2022/11/05 07:02:01;;;;;;;11.82;5.13;;;4.50;99.90;;;;;;5116641;27;20055;-70
2022/11/05 07:04:26;;;;;;;16.92;5.57;;;4.40;99.90;;;;;;5135317;27;20049;-69
2022/11/05 07:06:52;;;;;;;12.13;5.65;;;4.50;99.90;;;;;;5137157;27;20043;-70
2022/11/05 07:09:18;;;;;;;14.40;6.40;;;4.50;99.90;;;;;;5136657;27;20448;-69
2022/11/05 07:11:43;;;;;;;19.80;6.13;;;4.70;99.90;;;;;;5134490;27;20189;-69
2022/11/05 07:14:09;;;;;;;16.25;6.15;;;4.70;99.90;;;;;;5136614;27;20179;-69
2022/11/05 07:16:35;;;;;;;13.98;6.15;;;4.70;99.90;;;;;;5118796;28;20121;-69
2022/11/05 07:19:01;;;;;;;17.08;6.72;;;4.70;99.90;;;;;;5136410;27;20054;-73
2022/11/05 07:21:27;;;;;;;13.63;5.68;;;4.80;99.90;;;;;;5100328;27;20050;-70
2022/11/05 07:23:53;;;;;;;15.98;6.45;;;4.80;99.90;;;;;;5135494;27;20099;-69
2022/11/05 07:26:19;;;;;;;15.02;6.28;;;4.90;99.90;;;;;;5116372;28;20086;-69
2022/11/05 07:28:44;;;;;;;15.35;5.82;;;5.10;99.90;;;;;;5116048;28;20048;-69
2022/11/05 07:31:10;;;;;;;14.27;6.25;;;5.10;99.90;;;;;;5133671;28;20101;-71
2022/11/05 07:33:36;;;;;;;20.35;7.13;;;5.20;99.90;;;;;;5132813;28;20047;-69
2022/11/05 07:36:01;;;;;;;19.10;6.78;;;5.20;99.90;;;;;;5115386;28;20119;-69
2022/11/05 07:38:27;;;;;;;15.05;7.18;;;5.30;99.90;;;;;;5133445;28;20095;-69
2022/11/05 07:40:53;;;;;;;19.20;7.97;;;5.30;99.90;;;;;;5115381;28;20050;-68
2022/11/05 07:43:19;;;;;;;20.63;7.05;;;5.40;99.90;;;;;;5099139;28;20043;-69
2022/11/05 07:45:48;;;;;;;19.55;6.72;;;5.40;99.90;;;;;;5115146;28;20039;-69
2022/11/05 07:48:13;;;;;;;17.35;6.80;;;5.40;99.90;;;;;;5115602;28;20043;-69
2022/11/05 07:50:39;;;;;;;17.25;7.63;;;5.40;99.90;;;;;;5099590;27;20040;-70
2022/11/05 07:53:10;;;;;;;16.10;7.80;;;5.50;99.90;;;;;;5103810;27;20047;-67
2022/11/05 07:55:35;;;;;;;16.55;7.10;;;5.50;99.90;;;;;;5138531;27;20039;-69
2022/11/05 07:58:02;;;;;;;16.38;7.43;;;5.60;99.90;;;;;;5138407;27;20107;-68
2022/11/05 08:00:28;;;;;;;17.77;7.63;;;5.60;99.90;;;;;;5137555;27;20483;-70
2022/11/05 08:03:02;;;;;;;15.37;6.73;;;5.70;99.90;;;;;;5138125;27;20071;-69
2022/11/05 08:05:29;;;;;;;15.70;7.10;;;5.80;99.90;;;;;;5137169;27;20047;-75
2022/11/05 08:07:56;;;;;;;16.80;7.40;;;5.80;99.90;;;;;;5137801;27;20189;-67
2022/11/05 08:10:25;;;;;;;14.57;7.03;;;5.90;99.90;;;;;;5137170;27;20088;-69
2022/11/05 08:12:52;;;;;;;21.95;7.47;;;5.90;99.90;;;;;;5118453;27;20095;-71
2022/11/05 08:15:19;;;;;;;14.70;7.03;;;6.00;99.90;;;;;;5117773;27;20126;-69
2022/11/05 08:17:45;;;;;;;20.63;6.87;;;6.00;99.90;;;;;;5136745;27;20133;-70
2022/11/05 08:20:12;;;;;;;19.85;7.57;;;6.10;99.90;;;;;;5136976;27;20459;-69
2022/11/05 08:22:42;;;;;;;17.63;7.43;;;6.10;99.90;;;;;;5137021;27;20043;-69
2022/11/05 08:25:08;;;;;;;15.32;6.78;;;6.20;99.90;;;;;;5102109;27;20084;-69
2022/11/05 08:27:33;;;;;;;18.65;7.13;;;6.20;99.90;;;;;;5136901;27;20074;-70
2022/11/05 08:29:59;;;;;;;14.07;6.32;;;6.40;99.90;;;;;;5118444;27;20051;-69
2022/11/05 08:32:25;;;;;;;17.45;6.95;;;6.40;99.90;;;;;;5119161;27;20039;-70
2022/11/05 08:34:50;;;;;;;16.65;7.22;;;6.50;99.90;;;;;;5136506;27;20047;-70
2022/11/05 08:37:16;;;;;;;19.85;7.63;;;6.50;99.90;;;;;;5136864;27;20091;-70
2022/11/05 08:39:42;;;;;;;15.95;7.13;;;6.60;99.90;;;;;;5118027;27;20398;-70
2022/11/05 08:42:08;;;;;;;16.88;7.65;;;6.60;99.90;;;;;;5118422;27;20035;-71
2022/11/05 08:44:33;;;;;;;16.58;7.38;;;6.70;99.90;;;;;;5118324;27;20126;-70
2022/11/05 08:46:59;;;;;;;15.18;7.18;;;6.80;99.90;;;;;;5136828;27;20043;-69
2022/11/05 08:49:25;;;;;;;15.13;6.88;;;6.90;99.90;;;;;;5135577;27;20383;-68
2022/11/05 08:51:50;;;;;;;16.63;6.82;;;6.90;99.90;;;;;;5100519;27;20376;-70
2022/11/05 08:54:16;;;;;;;13.13;6.45;;;7.00;99.90;;;;;;5136494;27;20053;-70
2022/11/05 08:56:42;;;;;;;12.82;6.65;;;7.00;99.90;;;;;;5136357;27;20039;-69
2022/11/05 08:59:07;;;;;;;15.32;6.50;;;7.20;99.90;;;;;;5118775;27;20062;-70
2022/11/05 09:01:33;;;;;;;14.57;6.80;;;7.20;99.90;;;;;;5135439;27;20040;-71
2022/11/05 09:03:59;;;;;;;13.50;5.75;;;7.30;99.90;;;;;;5100080;27;20047;-69
2022/11/05 09:06:25;;;;;;;11.82;6.30;;;7.30;99.90;;;;;;5117706;27;20043;-69
2022/11/05 09:08:50;;;;;;;11.77;5.68;;;7.50;99.90;;;;;;5101564;27;20043;-69
2022/11/05 09:11:17;;;;;;;16.38;6.60;;;7.50;99.90;;;;;;5135152;27;20043;-69
2022/11/05 09:13:43;;;;;;;13.55;6.32;;;7.50;99.90;;;;;;5083879;27;20039;-71
2022/11/05 09:16:21;;;;;;;12.02;6.20;;;7.50;99.90;;;;;;5118228;27;20039;-70
2022/11/05 09:18:47;;;;;;;13.40;6.00;;;7.60;99.90;;;;;;5135956;27;20051;-69
2022/11/05 09:21:13;;;;;;;13.35;6.38;;;7.70;99.90;;;;;;5136050;27;20364;-71
2022/11/05 09:23:38;;;;;;;13.70;5.72;;;7.80;99.90;;;;;;5136183;27;20043;-68
2022/11/05 09:26:04;;;;;;;13.70;5.85;;;7.80;99.90;;;;;;5135962;27;20076;-68
2022/11/05 09:28:31;;;;;;;13.00;5.93;;;8.00;99.90;;;;;;5118209;27;20042;-69
2022/11/05 09:30:57;;;;;;;13.52;5.75;;;7.90;99.90;;;;;;5117451;27;20083;-70
2022/11/05 09:33:24;;;;;;;12.20;6.40;;;8.00;99.90;;;;;;5100142;27;20495;-69
2022/11/05 09:35:50;;;;;;;;;;;8.00;99.90;;;;;;5100337;27;20107;-71
2022/11/05 09:38:16;;;;;;;14.20;6.40;;;8.10;99.90;;;;;;5117403;27;20010;-70
2022/11/05 09:41:09;;;;;;;16.45;6.35;;;8.10;99.90;;;;;;5135360;27;20090;-70
2022/11/05 09:43:53;;;;;;;13.20;6.55;;;8.20;99.90;;;;;;5136108;27;20154;-69
2022/11/05 09:46:27;;;;;;;14.55;6.47;;;8.20;99.90;;;;;;5135051;27;20521;-69
2022/11/05 09:49:04;;;;;;;11.25;6.57;;;8.30;99.90;;;;;;5135372;27;20043;-69
2022/11/05 09:51:30;;;;;;;13.02;6.18;;;8.30;99.90;;;;;;5135587;27;20042;-70
2022/11/05 09:53:58;;;;;;;11.27;5.28;;;8.40;99.90;;;;;;5100744;27;20133;-70
2022/11/05 09:56:30;;;;;;;12.13;5.50;;;8.50;99.90;;;;;;5117715;27;20150;-70
2022/11/05 09:59:04;;;;;;;10.30;4.80;;;8.50;99.90;;;;;;5116621;27;20063;-70
2022/11/05 10:01:34;;;;;;;13.88;4.78;;;8.60;99.90;;;;;;5134965;27;20236;-69
2022/11/05 10:04:13;;;;;;;9.25;4.60;;;8.70;99.90;;;;;;5134936;27;20074;-74
2022/11/05 10:06:58;;;;;;;9.82;5.00;;;8.70;99.90;;;;;;5116746;27;20457;-70
2022/11/05 10:09:34;;;;;;;12.93;4.65;;;8.80;99.90;;;;;;5116633;27;20046;-69
2022/11/05 10:12:11;;;;;;;10.05;4.63;;;8.90;99.90;;;;;;5134209;27;20122;-69
2022/11/05 10:14:45;;;;;;;14.20;4.95;;;8.90;99.90;;;;;;5134352;27;20092;-68
2022/11/05 10:17:23;;;;;;;11.25;4.60;;;9.00;99.90;;;;;;5116741;27;20103;-70
2022/11/05 10:20:00;;;;;;;15.43;4.75;;;9.10;99.90;;;;;;5134668;27;20118;-68
2022/11/05 10:22:26;;;;;;;11.50;4.80;;;9.10;99.90;;;;;;5116911;27;20397;-68
2022/11/05 10:24:53;;;;;;;13.23;4.40;;;9.20;99.90;;;;;;5135210;27;20083;-68
2022/11/05 10:27:19;;;;;;;;;;;9.30;99.90;;;;;;5116585;27;20129;-69
2022/11/05 10:29:45;;;;;;;9.33;3.80;;;9.40;99.90;;;;;;5116199;27;19966;-69
2022/11/05 10:32:16;;;;;;;9.27;4.18;;;9.40;99.90;;;;;;5116113;27;20039;-69
2022/11/05 10:34:43;;;;;;;10.77;4.57;;;9.50;99.90;;;;;;5116407;27;20085;-69
2022/11/05 10:37:09;;;;;;;9.18;4.43;;;9.60;99.90;;;;;;5081703;27;20050;-69
2022/11/05 10:39:36;;;;;;;14.52;4.35;;;9.60;99.90;;;;;;5133983;27;20499;-70
2022/11/05 10:42:09;;;;;;;10.38;4.10;;;9.70;99.90;;;;;;5115243;27;20059;-68
2022/11/05 10:44:53;;;;;;;8.30;3.78;;;9.70;99.90;;;;;;5134119;27;20086;-69
2022/11/05 10:47:28;;;;;;;9.35;3.83;;;9.80;99.90;;;;;;5133643;27;20122;-68
2022/11/05 10:50:00;;;;;;;7.78;3.63;;;9.80;99.90;;;;;;5098574;27;20092;-68
2022/11/05 10:52:32;;;;;;;10.93;4.38;;;9.80;99.90;;;;;;5115769;27;20495;-69
2022/11/05 10:55:01;;;;;;;8.57;3.75;;;9.90;99.90;;;;;;5133839;27;20043;-68
2022/11/05 10:57:34;;;;;;;9.98;3.85;;;9.90;99.90;;;;;;5133988;27;20071;-68
2022/11/05 11:00:17;;;;;;;8.60;2.80;;;9.90;99.90;;;;;;5133845;27;20055;-68
2022/11/05 11:02:50;;;;;;;10.68;3.85;;;10.00;99.90;;;;;;5115483;27;20103;-69
2022/11/05 11:05:27;;;;;;;11.32;4.13;;;9.90;99.90;;;;;;5098876;27;20212;-68
2022/11/05 11:08:07;;;;;;;10.43;3.72;;;10.00;99.90;;;;;;5098632;27;20145;-69
2022/11/05 11:10:41;;;;;;;10.70;4.18;;;10.00;99.90;;;;;;5099231;27;20047;-70
2022/11/05 11:13:20;;;;;;;8.13;3.55;;;10.10;99.90;;;;;;5134418;27;20426;-69
2022/11/05 11:15:49;;;;;;;9.93;3.70;;;10.20;99.90;;;;;;5116122;27;20104;-68
2022/11/05 11:18:35;;;;;;;12.00;3.97;;;10.40;99.90;;;;;;5133731;27;20046;-69
2022/11/05 11:21:12;;;;;;;5.60;3.10;;;10.60;99.90;;;;;;5133530;27;20050;-68
2022/11/05 11:23:40;;;;;;;9.63;3.58;;;10.90;99.90;;;;;;5099220;28;20111;-69
2022/11/05 11:26:07;;;;;;;6.25;3.15;;;11.00;99.90;;;;;;5114751;27;20083;-69
2022/11/05 11:28:47;;;;;;;8.20;3.30;;;11.10;99.90;;;;;;5134033;28;20050;-68
2022/11/05 11:31:32;;;;;;;9.23;2.97;;;;;;;;;;5115281;28;20039;-68
2022/11/05 11:34:05;;;;;;;6.70;2.63;;;11.10;99.90;;;;;;5133426;28;20039;-68
2022/11/05 11:36:38;;;;;;;9.82;3.13;;;11.20;99.90;;;;;;5134258;28;20100;-68
2022/11/05 11:39:05;;;;;;;8.57;2.75;;;11.10;99.90;;;;;;5115191;28;20134;-69
2022/11/05 11:41:41;;;;;;;8.70;2.42;;;11.00;99.90;;;;;;5115370;28;20047;-68
2022/11/05 11:44:39;;;;;;;6.20;2.50;;;11.00;99.90;;;;;;5133844;28;20047;-68
2022/11/05 11:47:11;;;;;;;7.00;2.50;;;11.00;99.90;;;;;;5132891;28;20047;-68
2022/11/05 11:49:41;;;;;;;8.48;2.67;;;11.00;99.90;;;;;;5133132;28;20051;-67
2022/11/05 11:52:20;;;;;;;7.60;2.80;;;10.90;99.90;;;;;;5115275;28;20534;-68
2022/11/05 11:54:46;;;;;;;9.10;2.90;;;11.00;99.90;;;;;;5133205;28;20087;-69
2022/11/05 11:57:25;;;;;;;11.35;3.33;;;11.00;99.90;;;;;;5114723;28;20134;-68
2022/11/05 11:59:53;;;;;;;11.25;3.50;;;11.10;99.90;;;;;;5133002;28;20047;-69
2022/11/05 12:02:25;;;;;;;9.23;3.45;;;11.10;99.90;;;;;;5114778;28;20047;-70
2022/11/05 12:05:16;;;;;;;10.88;3.47;;;11.10;99.90;;;;;;5115477;28;20047;-69
2022/11/05 12:07:45;;;;;;;10.25;3.35;;;11.10;99.90;;;;;;5133465;28;20119;-69
2022/11/05 12:10:17;;;;;;;11.07;3.33;;;11.20;99.90;;;;;;5132601;28;20571;-68
2022/11/05 12:13:17;;;;;;;8.88;3.60;;;11.20;99.90;;;;;;5097951;28;20047;-68
2022/11/05 12:15:48;;;;;;;13.15;4.43;;;11.20;99.90;;;;;;5133742;28;20043;-70
2022/11/05 12:18:39;;;;;;;13.10;4.10;;;11.20;99.90;;;;;;5132966;28;20047;-68
2022/11/05 12:21:06;;;;;;;7.63;3.17;;;11.30;99.90;;;;;;5114920;28;20043;-68
2022/11/05 12:24:07;;;;;;;10.77;3.17;;;11.40;99.90;;;;;;5132855;28;20043;-69
2022/11/05 12:26:33;;;;;;;7.75;2.88;;;11.40;99.90;;;;;;5133542;28;20047;-68
2022/11/05 12:29:17;;;;;;;11.35;3.03;;;11.40;99.90;;;;;;5114638;28;20126;-69
2022/11/05 12:31:49;;;;;;;13.10;3.58;;;11.50;99.90;;;;;;5133131;28;20467;-69
2022/11/05 12:34:33;;;;;;;11.95;3.42;;;11.50;99.90;;;;;;5132765;28;20428;-69
2022/11/05 12:37:20;;;;;;;9.48;3.47;;;11.60;99.90;;;;;;5116282;27;20043;-70
2022/11/05 12:40:08;;;;;;;10.43;3.45;;;11.60;99.90;;;;;;5136979;27;20401;-68
2022/11/05 12:42:34;;;;;;;6.97;2.55;;;11.60;99.90;;;;;;5136708;27;20053;-69
2022/11/05 12:45:21;;;;;;;9.05;2.88;;;11.60;99.90;;;;;;5118409;27;20471;-70
2022/11/05 12:48:05;;;;;;;;;;;11.60;99.90;;;;;;5137745;27;20051;-69
2022/11/05 12:50:45;;;;;;;9.30;2.60;;;11.60;99.90;;;;;;5137091;27;20271;-68
2022/11/05 12:53:49;;;;;;;8.23;2.75;;;11.60;99.90;;;;;;5118025;27;20039;-69
2022/11/05 12:56:39;;;;;;;10.25;3.42;;;11.60;99.90;;;;;;5079787;27;20055;-69
2022/11/05 12:59:30;;;;;;;13.75;3.65;;;11.60;99.90;;;;;;5136026;27;20103;-69
2022/11/05 13:02:24;;;;;;;12.63;3.88;;;11.50;99.90;;;;;;5136935;27;20190;-68
2022/11/05 13:04:58;;;;;;;13.07;4.00;;;11.60;99.90;;;;;;5118067;27;20054;-69
2022/11/05 13:07:32;;;;;;;8.80;3.50;;;11.50;99.90;;;;;;5118251;27;20134;-69
2022/11/05 13:10:10;;;;;;;12.23;4.55;;;11.50;99.90;;;;;;5117762;27;20085;-69
2022/11/05 13:12:39;;;;;;;11.48;4.07;;;11.50;99.90;;;;;;5118722;27;20352;-69
2022/11/05 13:15:20;;;;;;;9.27;4.05;;;11.60;99.90;;;;;;5117880;27;20147;-68
2022/11/05 13:17:57;;;;;;;9.57;4.18;;;11.50;99.90;;;;;;5118552;27;20046;-68
2022/11/05 13:20:30;;;;;;;12.43;4.00;;;11.50;99.90;;;;;;5136493;27;20422;-69
2022/11/05 13:23:24;;;;;;;14.18;4.60;;;11.50;99.90;;;;;;5118244;27;20387;-69
2022/11/05 13:26:12;;;;;;;13.55;5.05;;;11.50;99.90;;;;;;5136376;27;20100;-69
2022/11/05 13:28:48;;;;;;;10.77;4.47;;;11.40;99.90;;;;;;5136384;27;20086;-70
2022/11/05 13:31:19;;;;;;;12.10;4.72;;;11.40;99.90;;;;;;5136224;27;20058;-72
2022/11/05 13:33:48;;;;;;;15.85;5.43;;;11.40;99.90;;;;;;5100563;27;20094;-70
2022/11/05 13:39:31;;;;;;;12.27;5.00;;;11.40;99.90;;;;;;5135064;27;20526;-68
2022/11/05 13:42:25;;;;;;;8.80;4.45;;;11.30;99.90;;;;;;5116933;27;20043;-72
2022/11/05 13:44:59;;;;;;;21.23;6.60;;;11.30;99.90;;;;;;5135212;27;20406;-71
2022/11/05 13:47:31;;;;;;;16.83;5.32;;;11.30;99.90;;;;;;5117001;27;20378;-70
2022/11/05 13:50:25;;;;;;;13.05;5.05;;;11.40;99.90;;;;;;5099460;27;20184;-70
2022/11/05 13:53:00;;;;;;;13.15;4.53;;;11.30;99.90;;;;;;5116968;27;20535;-70
2022/11/05 13:55:47;;;;;;;13.38;5.13;;;11.30;99.90;;;;;;5116910;27;20039;-71
2022/11/05 13:58:50;;;;;;;17.08;3.92;;;11.30;99.90;;;;;;5135349;27;20055;-70